Terminal Aerodrome Forecast
Issued by NWS St Louis, MO

Home | Current Version | Previous Version | Text Only | Print | Product List | Glossary On
Versions: 1 2 3 4 5 6 7 8 9 10 11 12 13 14 15 16 17 18 19 20 21 22 23 24 25 26 27 28 29 30
000
FTUS43 KLSX 011900 AAA
TAFSTL
TAF AMD
KSTL 011958Z 0120/0224 28008KT P6SM OVC010
     FM012300 31015G22KT P6SM -SN OVC010
     FM020300 32022G32KT P6SM -SN OVC012
     FM020800 34018G24KT P6SM OVC015
     FM021200 32012KT P6SM BKN020
     FM021500 30010KT P6SM SCT020=

USA.gov is the U.S. government's official web portal to all federal, state and local government web resources and services.